createdAt,value
2018-07-21T04:10:03.816Z,64.18
2018-07-21T04:10:29.272Z,64.18
2018-07-21T04:10:54.766Z,64.08
2018-07-21T04:11:20.352Z,64.18
2018-07-21T04:11:45.830Z,64.18
2018-07-21T04:12:11.376Z,64.37
2018-07-21T04:12:36.863Z,64.28
2018-07-21T04:13:02.428Z,64.28
2018-07-21T04:13:27.814Z,64.37
2018-07-21T04:13:53.337Z,64.28
2018-07-21T04:14:18.779Z,63.98
2018-07-21T04:14:44.299Z,64.28
2018-07-21T04:15:09.773Z,64.18
2018-07-21T04:15:35.283Z,64.37
2018-07-21T04:16:00.769Z,64.47
2018-07-21T04:16:26.322Z,63.89
2018-07-21T04:16:51.696Z,63.89
2018-07-21T04:17:17.227Z,64.37
2018-07-21T04:17:42.632Z,63.98
2018-07-21T04:18:08.093Z,64.18
2018-07-21T04:18:33.606Z,64.28
2018-07-21T04:18:59.111Z,64.18
2018-07-21T04:19:24.561Z,64.08
2018-07-21T04:19:50.069Z,64.18
2018-07-21T04:20:15.555Z,64.08
2018-07-21T04:20:41.067Z,64.37
2018-07-21T04:21:06.552Z,64.37
2018-07-21T04:21:31.999Z,64.47
2018-07-21T04:21:57.500Z,64.28
2018-07-21T04:22:23.015Z,64.47
2018-07-21T04:22:48.539Z,64.08
2018-07-21T04:23:14.040Z,64.28
2018-07-21T04:23:39.470Z,64.37
2018-07-21T04:24:04.948Z,64.08
2018-07-21T04:24:30.365Z,64.08
2018-07-21T04:24:55.821Z,64.56
2018-07-21T04:25:21.369Z,64.47
2018-07-21T04:25:46.787Z,64.47
2018-07-21T04:26:12.264Z,64.37
2018-07-21T04:26:37.795Z,64.86
2018-07-21T04:27:03.240Z,64.56
2018-07-21T04:27:28.721Z,64.86
2018-07-21T04:27:54.210Z,64.56
2018-07-21T04:28:19.659Z,64.56
2018-07-21T04:28:45.154Z,64.56
2018-07-21T04:29:10.618Z,64.37
2018-07-21T04:29:36.086Z,64.76
2018-07-21T04:30:01.581Z,64.56
2018-07-21T04:30:27.089Z,64.76
2018-07-21T04:30:52.555Z,64.76
2018-07-21T04:31:18.090Z,64.86
2018-07-21T04:31:43.557Z,64.47
2018-07-21T04:32:09.021Z,64.76
2018-07-21T04:32:34.544Z,64.56
2018-07-21T04:33:00.018Z,64.86
2018-07-21T04:33:25.509Z,64.56
2018-07-21T04:34:29.109Z,64.56
2018-07-21T04:34:54.614Z,64.66
2018-07-21T04:35:20.090Z,64.56
2018-07-21T04:35:45.574Z,64.56
2018-07-21T04:36:11.094Z,64.56
2018-07-21T04:36:36.590Z,64.37
2018-07-21T04:37:02.078Z,64.56
2018-07-21T04:37:27.574Z,64.47
2018-07-21T04:37:53.046Z,64.95
2018-07-21T04:38:18.547Z,65.05
2018-07-21T04:38:44.022Z,65.24
2018-07-21T04:39:09.512Z,65.72
2018-07-21T04:39:35.008Z,65.43
2018-07-21T04:40:00.524Z,65.33
2018-07-21T04:40:25.996Z,65.14
2018-07-21T04:40:51.499Z,65.63
2018-07-21T04:41:16.998Z,65.05
2018-07-21T04:41:42.480Z,65.33
2018-07-21T04:42:07.992Z,65.24
2018-07-21T04:42:33.533Z,65.24
2018-07-21T04:42:59.014Z,65.53
2018-07-21T04:44:02.610Z,65.53
2018-07-21T04:44:28.111Z,65.05
2018-07-21T04:44:53.615Z,65.24
2018-07-21T04:45:19.098Z,65.24
2018-07-21T04:45:44.612Z,65.05
2018-07-21T04:46:10.076Z,65.24
2018-07-21T04:46:35.599Z,65.53
2018-07-21T04:47:01.108Z,65.05
2018-07-21T04:47:26.646Z,65.14
2018-07-21T04:47:52.146Z,65.33
2018-07-21T04:49:00.343Z,65.05
2018-07-21T04:49:25.837Z,65.72
2018-07-21T04:49:51.336Z,65.14
2018-07-21T04:50:16.845Z,65.43
2018-07-21T04:50:42.353Z,65.33
2018-07-21T04:51:07.860Z,65.24
2018-07-21T04:51:33.338Z,65.24
2018-07-21T04:51:58.798Z,65.53
2018-07-21T04:52:24.288Z,65.33
2018-07-21T04:52:49.783Z,65.24
2018-07-21T04:53:15.278Z,65.24
2018-07-21T04:53:40.892Z,65.43
2018-07-21T04:54:06.512Z,65.24
2018-07-21T04:54:32.008Z,66.01
2018-07-21T04:54:57.515Z,65.81
2018-07-21T04:55:23.028Z,65.91
2018-07-21T04:55:48.493Z,65.81
2018-07-21T04:56:14.003Z,65.72
2018-07-21T04:56:39.498Z,65.81
2018-07-21T04:57:04.971Z,65.72
2018-07-21T04:57:30.473Z,65.81
2018-07-21T04:57:55.970Z,66.01
2018-07-21T04:58:21.490Z,66.11
2018-07-21T04:58:46.975Z,65.81
2018-07-21T04:59:12.509Z,65.81
2018-07-21T04:59:37.953Z,66.11
2018-07-21T05:00:03.416Z,66.01
2018-07-21T05:00:28.909Z,65.91
2018-07-21T05:00:54.462Z,65.81
2018-07-21T05:01:19.892Z,65.81
2018-07-21T05:01:45.407Z,66.01
2018-07-21T05:02:10.925Z,65.81
2018-07-21T05:02:36.432Z,66.01
2018-07-21T05:03:01.924Z,65.91
2018-07-21T05:03:27.396Z,65.81
2018-07-21T05:03:52.914Z,65.81
2018-07-21T05:04:18.413Z,66.01
2018-07-21T05:04:43.924Z,66.01
2018-07-21T05:05:09.377Z,66.01
2018-07-21T05:05:34.933Z,66.2
2018-07-21T05:06:00.363Z,66.11
2018-07-21T05:06:25.858Z,65.91
2018-07-21T05:06:51.322Z,66.2
2018-07-21T05:07:16.830Z,66.2
2018-07-21T05:07:42.326Z,66.01
2018-07-21T05:08:07.800Z,66.2
2018-07-21T05:08:33.337Z,66.11
2018-07-21T05:08:58.842Z,66.11
2018-07-21T05:09:24.346Z,66.97
2018-07-21T05:09:49.850Z,66.59
2018-07-21T05:10:15.407Z,66.88
2018-07-21T05:10:40.889Z,66.69
2018-07-21T05:11:06.417Z,66.59
2018-07-21T05:11:31.923Z,66.88
2018-07-21T05:11:57.430Z,66.97
2018-07-21T05:12:22.949Z,67.26
2018-07-21T05:12:48.418Z,67.07
2018-07-21T05:13:13.921Z,66.88
2018-07-21T05:13:39.397Z,66.88
2018-07-21T05:14:04.884Z,66.88
2018-07-21T05:14:30.382Z,66.97
2018-07-21T05:14:55.862Z,67.07
2018-07-21T05:15:21.364Z,67.26
2018-07-21T05:16:14.828Z,66.88
2018-07-21T05:16:40.330Z,67.07
2018-07-21T05:17:05.817Z,66.78
2018-07-21T05:17:31.289Z,66.88
2018-07-21T05:17:56.774Z,66.97
2018-07-21T05:18:22.270Z,67.36
2018-07-21T05:18:47.792Z,66.88
2018-07-21T05:19:13.288Z,67.26
2018-07-21T05:19:38.819Z,67.26
2018-07-21T05:20:04.350Z,67.26
2018-07-21T05:20:29.798Z,66.88
2018-07-21T05:20:55.270Z,66.88
2018-07-21T05:21:20.769Z,66.88
2018-07-21T05:21:46.248Z,66.88
2018-07-21T05:22:11.744Z,66.88
2018-07-21T05:22:37.250Z,67.07
2018-07-21T05:23:51.026Z,66.97
2018-07-21T05:24:16.538Z,67.46
2018-07-21T05:24:42.045Z,67.07
2018-07-21T05:25:07.523Z,67.07
2018-07-21T05:25:33.003Z,66.59
2018-07-21T05:25:58.515Z,66.97
2018-07-21T05:26:23.982Z,66.69
2018-07-21T05:26:49.461Z,66.88
2018-07-21T05:28:03.250Z,66.97
2018-07-21T05:28:28.758Z,66.97
2018-07-21T05:28:54.227Z,67.16
2018-07-21T05:29:19.733Z,67.55
2018-07-21T05:29:45.211Z,67.3
2018-07-21T05:30:10.688Z,67.16
2018-07-21T05:30:36.191Z,67.16
2018-07-21T05:31:01.665Z,66.97
2018-07-21T05:31:27.147Z,67.74
2018-07-21T05:31:52.671Z,67.74
2018-07-21T05:32:18.193Z,66.88
2018-07-21T05:32:43.689Z,67.16
2018-07-21T05:33:09.200Z,67.2
2018-07-21T05:33:34.739Z,67.46
2018-07-21T05:34:00.188Z,67.46
2018-07-21T05:34:25.712Z,67.07
2018-07-21T05:34:51.221Z,67.55
2018-07-21T05:35:16.759Z,67.74
2018-07-21T05:35:42.245Z,67.36
2018-07-21T05:36:07.798Z,67.1
2018-07-21T05:36:33.241Z,66.97
2018-07-21T05:36:58.744Z,67.84
2018-07-21T05:37:24.242Z,67.88
2018-07-21T05:37:49.750Z,66.91
2018-07-21T05:38:15.252Z,67.1
2018-07-21T05:38:40.737Z,67.78
2018-07-21T05:39:06.356Z,67.58
2018-07-21T05:39:31.845Z,67.68
2018-07-21T05:39:57.361Z,67.1
2018-07-21T05:40:22.843Z,67
2018-07-21T05:40:48.360Z,67.3
2018-07-21T05:41:13.863Z,67.3
2018-07-21T05:41:39.354Z,67.2
2018-07-21T05:42:04.862Z,67.2
2018-07-21T05:42:30.446Z,67.3
2018-07-21T05:42:55.941Z,67.68
2018-07-21T05:43:21.492Z,67.1
2018-07-21T05:43:47.003Z,67.1
2018-07-21T05:44:12.525Z,67.2
2018-07-21T05:44:38.040Z,67.2
2018-07-21T05:45:03.585Z,67.4
2018-07-21T05:45:29.089Z,67.58
2018-07-21T05:45:54.652Z,67.49
2018-07-21T05:46:20.198Z,67.2
2018-07-21T05:46:45.714Z,67.2
2018-07-21T05:47:11.187Z,67
2018-07-21T05:47:36.691Z,67.2
2018-07-21T05:48:02.199Z,67.3
2018-07-21T05:48:27.709Z,67.04
2018-07-21T05:48:53.221Z,67.49
2018-07-21T05:49:18.834Z,67.49
2018-07-21T05:49:44.321Z,67.4
2018-07-21T05:50:09.786Z,67.33
2018-07-21T05:50:35.285Z,67.4
2018-07-21T05:51:00.794Z,67.2
2018-07-21T05:51:26.286Z,67.2
2018-07-21T05:51:51.791Z,67.68
2018-07-21T05:52:17.278Z,67.4
2018-07-21T05:52:42.795Z,67.49
2018-07-21T05:53:08.285Z,67.4
2018-07-21T05:53:33.782Z,67.4
2018-07-21T05:54:47.673Z,67.33
2018-07-21T05:55:13.165Z,67.68
2018-07-21T05:55:38.684Z,67.4
2018-07-21T05:56:04.147Z,67.49
2018-07-21T05:56:29.656Z,67.04
2018-07-21T05:56:55.189Z,67.2
2018-07-21T05:57:20.692Z,67.2
2018-07-21T05:57:46.181Z,67.68
2018-07-21T05:58:11.692Z,67.52
2018-07-21T05:58:37.296Z,67.52
2018-07-21T05:59:02.774Z,67.4
2018-07-21T05:59:28.254Z,67.58
2018-07-21T05:59:53.752Z,67.43
2018-07-21T06:00:19.237Z,67.49
2018-07-21T06:00:44.769Z,67.52
2018-07-21T06:01:10.254Z,67.43
2018-07-21T06:01:35.758Z,67.52
2018-07-21T06:02:01.260Z,67.23
2018-07-21T06:02:26.740Z,66.94
2018-07-21T06:02:52.371Z,67.81
2018-07-21T06:03:17.723Z,67.43
2018-07-21T06:03:43.218Z,67.62
2018-07-21T06:04:08.751Z,67.43
2018-07-21T06:04:34.269Z,67.81
2018-07-21T06:04:59.777Z,67.81
2018-07-21T06:05:25.269Z,67.62
2018-07-21T06:05:50.767Z,67.71
2018-07-21T06:06:16.278Z,67.33
2018-07-21T06:06:41.809Z,67.23
2018-07-21T06:07:07.299Z,67.23
2018-07-21T06:07:32.796Z,67.04
2018-07-21T06:07:58.292Z,67.14
2018-07-21T06:08:23.771Z,67.23
2018-07-21T06:08:49.261Z,67.23
2018-07-21T06:09:14.781Z,67.62
2018-07-21T06:09:40.418Z,67.33
2018-07-21T06:10:05.788Z,67.62
2018-07-21T06:10:31.290Z,67.52
2018-07-21T06:10:56.760Z,67.23
2018-07-21T06:11:22.257Z,67.14
2018-07-21T06:11:47.747Z,67.23
2018-07-21T06:12:13.241Z,67.14
2018-07-21T06:12:38.739Z,67.14
2018-07-21T06:13:04.245Z,66.85
2018-07-21T06:13:29.742Z,66.94
2018-07-21T06:13:55.257Z,67.23
2018-07-21T06:14:20.773Z,67.04
2018-07-21T06:14:46.303Z,66.85
2018-07-21T06:15:11.828Z,66.94
2018-07-21T06:15:37.352Z,66.66
2018-07-21T06:16:02.864Z,66.94
2018-07-21T06:16:28.361Z,66.56
2018-07-21T06:16:53.921Z,66.85
2018-07-21T06:17:19.458Z,65.98
2018-07-21T06:17:44.945Z,66.17
2018-07-21T06:18:10.439Z,66.27
2018-07-21T06:18:35.975Z,66.27
2018-07-21T06:19:01.436Z,65.98
2018-07-21T06:19:26.931Z,65.78
2018-07-21T06:19:52.418Z,66.17
2018-07-21T06:20:17.937Z,65.3
2018-07-21T06:20:43.465Z,65.11
2018-07-21T06:21:08.987Z,65.2
2018-07-21T06:21:34.492Z,65.3
2018-07-21T06:21:59.965Z,65.2
2018-07-21T06:22:25.468Z,65.11
2018-07-21T06:22:50.933Z,65.2
2018-07-21T06:23:16.435Z,65.98
2018-07-21T06:23:41.925Z,65.98
2018-07-21T06:24:07.452Z,65.88
2018-07-21T06:24:32.946Z,65.2
2018-07-21T06:24:58.459Z,65.5
2018-07-21T06:25:23.988Z,65.11
2018-07-21T06:26:32.710Z,64.47
2018-07-21T06:26:58.215Z,64.15
2018-07-21T06:27:23.713Z,64.05
2018-07-21T06:27:49.203Z,64.34
2018-07-21T06:28:14.708Z,64.24
2018-07-21T06:28:40.207Z,64.53
2018-07-21T06:29:05.725Z,64.05
2018-07-21T06:29:31.219Z,63.76
2018-07-21T06:29:56.755Z,64.34
2018-07-21T06:30:22.227Z,64.34
2018-07-21T06:30:47.745Z,64.56
2018-07-21T06:31:13.237Z,64.82
2018-07-21T06:31:38.720Z,64.66
2018-07-21T06:32:04.231Z,64.56
2018-07-21T06:32:29.724Z,64.28
2018-07-21T06:32:55.287Z,64.37
2018-07-21T06:33:20.689Z,64.28
2018-07-21T06:33:46.183Z,64.18
2018-07-21T06:34:11.657Z,64.37
2018-07-21T06:35:05.102Z,64.28
2018-07-21T06:35:30.614Z,64.37
2018-07-21T06:35:56.106Z,64.28
2018-07-21T06:36:21.598Z,64.56
2018-07-21T06:36:47.157Z,64.47
2018-07-21T06:37:12.649Z,64.18
2018-07-21T06:37:38.139Z,64.37
2018-07-21T06:38:03.639Z,64.08
2018-07-21T06:38:29.136Z,63.89
2018-07-21T06:38:54.628Z,63.79
2018-07-21T06:39:20.124Z,63.98
2018-07-21T06:39:45.623Z,63.7
2018-07-21T06:40:11.142Z,63.7
2018-07-21T06:40:36.608Z,63.7
2018-07-21T06:41:02.108Z,63.6
2018-07-21T06:41:27.589Z,63.6
2018-07-21T06:41:53.100Z,64.08
2018-07-21T06:42:18.583Z,64.28
2018-07-21T06:42:44.085Z,63.98
2018-07-21T06:43:09.633Z,64.08
2018-07-21T06:43:35.084Z,64.37
2018-07-21T06:44:00.673Z,64.28
2018-07-21T06:44:26.071Z,64.66
2018-07-21T06:44:51.566Z,64.18
2018-07-21T06:45:17.076Z,64.47
2018-07-21T06:45:42.616Z,64.31
2018-07-21T06:46:08.086Z,63.82
2018-07-21T06:46:33.563Z,64.08
2018-07-21T06:46:59.063Z,64.18
2018-07-21T06:47:24.560Z,63.73
2018-07-21T06:47:50.072Z,63.92
2018-07-21T06:48:15.565Z,63.73
2018-07-21T06:48:41.085Z,63.43
2018-07-21T06:49:06.568Z,63.43
2018-07-21T06:49:32.083Z,62.76
2018-07-21T06:49:57.594Z,63.34
2018-07-21T06:50:23.082Z,63.05
2018-07-21T06:50:48.587Z,62.86
2018-07-21T06:51:14.109Z,62.76
2018-07-21T06:51:39.608Z,62.57
2018-07-21T06:52:05.135Z,62.28
2018-07-21T06:52:30.632Z,62.57
2018-07-21T06:52:56.134Z,62.28
2018-07-21T06:53:21.640Z,61.99
2018-07-21T06:53:47.138Z,61.99
2018-07-21T06:54:12.641Z,61.99
2018-07-21T06:54:38.144Z,61.89
2018-07-21T06:55:03.637Z,62.28
2018-07-21T06:55:29.148Z,62.37
2018-07-21T06:55:54.643Z,61.92
2018-07-21T06:56:20.129Z,62.4
2018-07-21T06:56:45.609Z,61.44
2018-07-21T06:57:11.110Z,61.83
2018-07-21T06:57:36.642Z,61.15
2018-07-21T06:58:02.113Z,61.34
2018-07-21T06:58:27.636Z,60.38
2018-07-21T06:58:53.116Z,60.47
2018-07-21T06:59:18.653Z,60.6
2018-07-21T06:59:44.138Z,60.6
2018-07-21T07:00:09.643Z,60.89
2018-07-21T07:01:13.273Z,59.92
2018-07-21T07:01:38.766Z,59.44
2018-07-21T07:02:04.275Z,59.47
2018-07-21T07:02:29.753Z,59.18
2018-07-21T07:02:55.280Z,58.5
2018-07-21T07:03:20.806Z,58.89
2018-07-21T07:03:46.283Z,58.89
2018-07-21T07:04:11.775Z,58.6
2018-07-21T07:04:37.290Z,58.89
2018-07-21T07:05:02.779Z,58.6
2018-07-21T07:05:28.275Z,58.7
2018-07-21T07:05:53.750Z,58.5
2018-07-21T07:06:19.271Z,58.8
2018-07-21T07:06:44.776Z,58.5
2018-07-21T07:07:10.258Z,58.5
2018-07-21T07:07:35.750Z,58.8
2018-07-21T07:08:01.228Z,58.6
2018-07-21T07:08:26.750Z,58.31
2018-07-21T07:08:52.248Z,58.89
2018-07-21T07:09:17.722Z,58.7
2018-07-21T07:09:43.232Z,59.08
2018-07-21T07:10:08.750Z,59.38
2018-07-21T07:10:34.262Z,59.38
2018-07-21T07:10:59.746Z,59.38
2018-07-21T07:11:25.242Z,59.08
2018-07-21T07:11:50.718Z,59.18
2018-07-21T07:12:16.236Z,59.47
2018-07-21T07:12:41.711Z,59.56
2018-07-21T07:13:07.214Z,59.56
2018-07-21T07:13:32.715Z,59.47
2018-07-21T07:13:58.205Z,59.47
2018-07-21T07:14:23.688Z,59.38
2018-07-21T07:14:49.199Z,60.05
2018-07-21T07:15:14.683Z,59.86
2018-07-21T07:15:40.197Z,59.86
2018-07-21T07:16:05.737Z,59.56
2018-07-21T07:16:31.197Z,59.86
2018-07-21T07:16:56.716Z,59.95
2018-07-21T07:17:22.236Z,59.76
2018-07-21T07:17:47.714Z,59.73
2018-07-21T07:18:13.242Z,59.56
2018-07-21T07:18:38.716Z,59.44
2018-07-21T07:19:04.200Z,58.86
2018-07-21T07:19:29.692Z,58.86
2018-07-21T07:19:55.200Z,59.25
2018-07-21T07:20:20.686Z,59.05
2018-07-21T07:20:46.155Z,59.83
2018-07-21T07:21:11.648Z,59.83
2018-07-21T07:21:37.157Z,59.76
2018-07-21T07:22:02.681Z,59.92
2018-07-21T07:22:28.198Z,59.25
2018-07-21T07:22:53.690Z,58.67
2018-07-21T07:23:19.206Z,58.67
2018-07-21T07:23:44.688Z,58.67
2018-07-21T07:24:10.213Z,58.76
2018-07-21T07:24:35.726Z,57.31
2018-07-21T07:25:01.216Z,57.12
2018-07-21T07:25:26.691Z,56.45
2018-07-21T07:25:52.201Z,57.12
2018-07-21T07:26:17.703Z,56.63
2018-07-21T07:26:43.201Z,57.12
2018-07-21T07:27:08.691Z,56.83
2018-07-21T07:27:34.221Z,56.73
2018-07-21T07:27:59.733Z,56.28
2018-07-21T07:28:25.215Z,55.41
2018-07-21T07:28:50.734Z,55.87
2018-07-21T07:29:16.232Z,56.18
2018-07-21T07:29:41.743Z,55.51
2018-07-21T07:30:07.226Z,55.6
2018-07-21T07:30:32.786Z,55.02
2018-07-21T07:30:58.288Z,54.73
2018-07-21T07:31:23.792Z,54.15
2018-07-21T07:31:49.297Z,54.35
2018-07-21T07:32:14.817Z,54.25
2018-07-21T07:32:40.317Z,54.44
2018-07-21T07:33:05.836Z,54.15
2018-07-21T07:33:31.320Z,54.35
2018-07-21T07:33:56.810Z,54.35
2018-07-21T07:34:22.309Z,54.35
2018-07-21T07:34:47.809Z,54.53
2018-07-21T07:35:13.345Z,54.93
2018-07-21T07:35:38.847Z,54.83
2018-07-21T07:36:04.345Z,55.21
2018-07-21T07:36:29.819Z,55.21
2018-07-21T07:36:55.329Z,55.21
2018-07-21T07:37:20.862Z,55.02
2018-07-21T07:37:46.369Z,55.31
2018-07-21T07:38:11.888Z,55.31
2018-07-21T07:38:37.392Z,55.31
2018-07-21T07:39:02.864Z,55.41
2018-07-21T07:39:28.421Z,55.7
2018-07-21T07:39:53.931Z,55.21
2018-07-21T07:40:19.443Z,55.11
2018-07-21T07:40:44.984Z,54.53
2018-07-21T07:41:10.514Z,54.93
2018-07-21T07:41:36.095Z,54.73
2018-07-21T07:42:01.604Z,55.11
2018-07-21T07:42:27.079Z,55.09
2018-07-21T07:42:52.579Z,55.09
2018-07-21T07:43:18.067Z,54.99
2018-07-21T07:43:43.573Z,55.31
2018-07-21T07:44:09.059Z,55.09
2018-07-21T07:44:34.560Z,55.19
2018-07-21T07:45:00.060Z,54.63
2018-07-21T07:45:25.587Z,54.99
2018-07-21T07:45:51.049Z,55.09
2018-07-21T07:46:16.535Z,54.99
2018-07-21T07:46:42.049Z,54.99
2018-07-21T07:47:07.546Z,54.9
2018-07-21T07:47:33.061Z,54.71
2018-07-21T07:47:58.596Z,55.29
2018-07-21T07:48:24.099Z,55.19
2018-07-21T07:48:49.783Z,54.25
2018-07-21T07:49:15.227Z,55.21
2018-07-21T07:49:40.664Z,54.35
2018-07-21T07:50:06.133Z,54.63
2018-07-21T07:50:31.559Z,54.73
2018-07-21T07:50:57.060Z,54.71
2018-07-21T07:51:22.504Z,54.41
2018-07-21T07:51:48.028Z,54.71
2018-07-21T07:52:13.596Z,54.41
2018-07-21T07:52:39.053Z,54.32
2018-07-21T07:53:04.477Z,54.22
2018-07-21T07:53:30.000Z,54.22
2018-07-21T07:53:55.454Z,54.41
2018-07-21T07:54:20.980Z,54.51
2018-07-21T07:54:46.478Z,55.29
2018-07-21T07:55:11.880Z,55.09
2018-07-21T07:55:37.361Z,55.77
2018-07-21T07:56:02.808Z,55.47
2018-07-21T07:56:28.289Z,55.77
2018-07-21T07:56:53.718Z,55.29
2018-07-21T07:57:19.192Z,55.09
2018-07-21T07:57:44.736Z,55.19
2018-07-21T07:58:10.246Z,55.47
2018-07-21T07:58:35.715Z,55.38
2018-07-21T07:59:01.207Z,55.38
2018-07-21T07:59:26.668Z,55.77
2018-07-21T07:59:52.186Z,55.19
2018-07-21T08:00:17.642Z,55.77
2018-07-21T08:00:43.091Z,55.47
2018-07-21T08:01:08.562Z,55.96
2018-07-21T08:01:34.054Z,56.05
2018-07-21T08:01:59.545Z,55.96
2018-07-21T08:02:24.969Z,55.96
2018-07-21T08:02:50.459Z,56.15
2018-07-21T08:03:15.921Z,56.05
2018-07-21T08:03:41.403Z,56.63
2018-07-21T08:04:06.913Z,57.03
2018-07-21T08:04:32.322Z,57.03
2018-07-21T08:04:57.856Z,56.93
2018-07-21T08:05:23.359Z,56.73
2018-07-21T08:05:48.766Z,56.83
2018-07-21T08:06:14.215Z,56.47
2018-07-21T08:06:39.810Z,56.67
2018-07-21T08:07:05.246Z,56.47
2018-07-21T08:07:30.687Z,56.18
2018-07-21T08:07:56.183Z,57.15
2018-07-21T08:08:21.664Z,56.57
2018-07-21T08:08:47.067Z,56.28
2018-07-21T08:09:12.551Z,56.47
2018-07-21T08:09:37.975Z,56.47
2018-07-21T08:10:03.508Z,56.21
2018-07-21T08:10:28.964Z,56.21
2018-07-21T08:10:54.385Z,56.21
2018-07-21T08:11:19.860Z,56.3
2018-07-21T08:11:45.334Z,56.11
2018-07-21T08:12:10.794Z,55.53
2018-07-21T08:12:36.298Z,55.05
2018-07-21T08:13:01.724Z,54.47
2018-07-21T08:13:27.266Z,54.47
2018-07-21T08:13:52.683Z,54.75
2018-07-21T08:14:18.181Z,54.95
2018-07-21T08:14:43.585Z,54.37
2018-07-21T08:15:09.086Z,54.37
2018-07-21T08:15:34.618Z,54.57
2018-07-21T08:16:00.036Z,54.49
2018-07-21T08:16:25.486Z,54.08
2018-07-21T08:16:50.943Z,54.08
2018-07-21T08:17:16.427Z,54.3
2018-07-21T08:17:41.893Z,53.5
2018-07-21T08:18:07.374Z,53.21
2018-07-21T08:18:32.781Z,53.99
2018-07-21T08:18:58.244Z,53.89
2018-07-21T08:19:23.859Z,53.89
2018-07-21T08:19:49.245Z,54.37
2018-07-21T08:20:14.721Z,53.99
2018-07-21T08:20:40.146Z,53.89
2018-07-21T08:21:05.618Z,54.37
2018-07-21T08:21:31.072Z,54.27
2018-07-21T08:21:56.559Z,54.47
2018-07-21T08:22:22.008Z,54.27
2018-07-21T08:22:47.480Z,54.27
2018-07-21T08:23:12.948Z,54.66
2018-07-21T08:23:38.450Z,54.57
2018-07-21T08:24:03.901Z,53.79
2018-07-21T08:24:29.357Z,54.08
2018-07-21T08:24:54.802Z,54.66
2018-07-21T08:25:20.257Z,54.27
2018-07-21T08:25:45.752Z,54.37
2018-07-21T08:26:11.213Z,54.21
2018-07-21T08:26:36.626Z,54.79
2018-07-21T08:27:02.090Z,54.69
2018-07-21T08:27:27.563Z,54.3
2018-07-21T08:27:53.016Z,54.49
2018-07-21T08:28:18.480Z,55.17
2018-07-21T08:28:43.966Z,55.07
2018-07-21T08:29:09.485Z,54.79
2018-07-21T08:29:34.920Z,54.21
2018-07-21T08:30:00.330Z,53.91
2018-07-21T08:30:25.870Z,53.81
2018-07-21T08:30:51.359Z,54.49
2018-07-21T08:31:16.786Z,54.01
2018-07-21T08:31:42.309Z,54.03
2018-07-21T08:32:07.764Z,54.03
2018-07-21T08:32:33.274Z,53.94
2018-07-21T08:32:58.773Z,54.23
2018-07-21T08:33:24.254Z,53.94
2018-07-21T08:33:49.681Z,54.23
2018-07-21T08:34:15.175Z,54.13
2018-07-21T08:34:40.639Z,54.23
2018-07-21T08:35:06.080Z,54.13
2018-07-21T08:35:31.624Z,54.03
2018-07-21T08:35:57.051Z,53.94
2018-07-21T08:36:22.537Z,54.03
2018-07-21T08:36:48.019Z,54.03
2018-07-21T08:37:13.478Z,54.23
2018-07-21T08:37:38.985Z,53.45
2018-07-21T08:38:04.479Z,53.85
2018-07-21T08:38:29.987Z,53.65
2018-07-21T08:38:55.522Z,53.65
2018-07-21T08:39:21.020Z,53.65
2018-07-21T08:39:46.543Z,53.07
2018-07-21T08:40:12.027Z,53.26
2018-07-21T08:40:37.536Z,53.07
2018-07-21T08:41:02.968Z,53.17
2018-07-21T08:41:28.450Z,53.26
2018-07-21T08:41:53.872Z,53.65
2018-07-21T08:42:19.328Z,54.03
2018-07-21T08:42:44.827Z,54.13
2018-07-21T08:43:10.280Z,53.85
2018-07-21T08:43:35.738Z,54.13
2018-07-21T08:44:01.240Z,54.43
2018-07-21T08:44:26.691Z,54.13
2018-07-21T08:44:52.169Z,54.23
2018-07-21T08:45:17.629Z,54.52
2018-07-21T08:45:43.065Z,54.43
2018-07-21T08:46:08.566Z,54.13
2018-07-21T08:46:34.031Z,53.36
2018-07-21T08:46:59.500Z,53.45
2018-07-21T08:47:25.008Z,53.45
2018-07-21T08:47:50.451Z,54.03
2018-07-21T08:48:15.920Z,54.23
2018-07-21T08:48:41.403Z,54.43
2018-07-21T08:49:06.845Z,54.23
2018-07-21T08:49:32.331Z,54.13
2018-07-21T08:49:57.783Z,53.97
2018-07-21T08:50:23.238Z,54.06
2018-07-21T08:50:48.761Z,54.26
2018-07-21T08:51:14.208Z,53.58
2018-07-21T08:51:39.586Z,53.67
2018-07-21T08:52:05.204Z,54.26
2018-07-21T08:52:30.498Z,54.06
2018-07-21T08:52:56.036Z,54.26
2018-07-21T08:53:22.099Z,53.97
2018-07-21T08:53:47.285Z,54.06
2018-07-21T08:54:12.779Z,53.29
2018-07-21T08:54:38.208Z,53.29
2018-07-21T08:55:03.727Z,53.31
2018-07-21T08:55:29.163Z,53.29
2018-07-21T08:55:54.636Z,53.09
2018-07-21T08:56:20.110Z,53.29
2018-07-21T08:56:45.619Z,53.09
2018-07-21T08:57:11.092Z,53.31
2018-07-21T08:57:36.560Z,53.31
2018-07-21T08:58:01.988Z,53.39
2018-07-21T08:58:27.472Z,53.29
2018-07-21T08:58:52.936Z,53.58
2018-07-21T08:59:18.377Z,53.12
2018-07-21T08:59:43.922Z,53.22
2018-07-21T09:00:09.468Z,53.09
2018-07-21T09:00:34.957Z,52.83
2018-07-21T09:01:00.339Z,52.93
2018-07-21T09:01:25.837Z,52.64
2018-07-21T09:01:51.304Z,52.44
2018-07-21T09:02:16.788Z,52.34
2018-07-21T09:02:42.262Z,52.44
2018-07-21T09:03:07.711Z,52.54
2018-07-21T09:03:33.193Z,52.54
2018-07-21T09:03:58.678Z,52.44
2018-07-21T09:04:24.106Z,52.34
2018-07-21T09:04:49.556Z,52.54
2018-07-21T09:05:15.070Z,52.44
2018-07-21T09:05:40.629Z,52.34
2018-07-21T09:06:05.981Z,52.73
2018-07-21T09:06:31.400Z,52.73
2018-07-21T09:06:56.948Z,52.83
2018-07-21T09:07:22.443Z,52.93
2018-07-21T09:07:47.908Z,53.02
2018-07-21T09:08:13.341Z,52.54
2018-07-21T09:08:38.800Z,53.02
2018-07-21T09:09:04.268Z,53.02
2018-07-21T09:09:29.696Z,52.93
2018-07-21T09:09:55.215Z,53.22
2018-07-21T09:10:20.613Z,53.22
2018-07-21T09:10:46.107Z,52.83
2018-07-21T09:11:11.519Z,52.54
2018-07-21T09:11:36.997Z,52.34
2018-07-21T09:12:02.487Z,52.93
2018-07-21T09:12:27.969Z,52.47
2018-07-21T09:12:53.453Z,52.15
2018-07-21T09:13:18.898Z,52.06
2018-07-21T09:13:44.385Z,51.57
2018-07-21T09:14:09.836Z,52.25
2018-07-21T09:14:35.280Z,52.06
2018-07-21T09:15:00.761Z,52.34
2018-07-21T09:15:26.253Z,52.18
2018-07-21T09:15:51.694Z,52.47
2018-07-21T09:16:17.196Z,51.76
2018-07-21T09:16:42.641Z,51.98
2018-07-21T09:17:08.137Z,51.98
2018-07-21T09:17:33.611Z,51.89
2018-07-21T09:17:59.118Z,52.66
2018-07-21T09:18:24.568Z,52.28
2018-07-21T09:18:49.995Z,52.95
2018-07-21T09:19:15.476Z,52.95
2018-07-21T09:19:40.922Z,53.15
2018-07-21T09:20:06.406Z,52.95
2018-07-21T09:20:31.899Z,52.95
2018-07-21T09:20:57.362Z,52.95
2018-07-21T09:21:22.831Z,52.95
2018-07-21T09:21:48.238Z,52.86
2018-07-21T09:22:13.722Z,52.95
2018-07-21T09:22:39.232Z,53.05
2018-07-21T09:23:04.730Z,52.47
2018-07-21T09:23:30.130Z,52.76
2018-07-21T09:23:55.656Z,52.56
2018-07-21T09:24:21.100Z,52.37
2018-07-21T09:24:46.571Z,52.56
2018-07-21T09:25:12.056Z,52.47
2018-07-21T09:25:37.525Z,52.28
2018-07-21T09:26:03.077Z,52.28
2018-07-21T09:26:28.519Z,52.56
2018-07-21T09:26:54.019Z,52.76
2018-07-21T09:27:19.468Z,52.76
2018-07-21T09:27:44.944Z,52.86
2018-07-21T09:28:10.456Z,52.95
2018-07-21T09:28:35.880Z,52.76
2018-07-21T09:29:01.300Z,53.34
2018-07-21T09:29:26.821Z,52.95
2018-07-21T09:29:52.374Z,51.98
2018-07-21T09:30:17.775Z,51.89
2018-07-21T09:30:43.294Z,51.79
2018-07-21T09:31:08.828Z,52.66
2018-07-21T09:31:34.324Z,52.86
2018-07-21T09:31:59.830Z,52.37
2018-07-21T09:32:25.327Z,52.4
2018-07-21T09:32:50.829Z,52.78
2018-07-21T09:33:49.362Z,52.59
2018-07-21T09:34:14.931Z,52.59
2018-07-21T09:34:40.389Z,52.01
2018-07-21T09:35:05.871Z,52.01
2018-07-21T09:35:31.383Z,51.72
2018-07-21T09:35:56.888Z,52.69
2018-07-21T09:36:22.366Z,52.01
2018-07-21T09:36:47.848Z,51.43
2018-07-21T09:37:13.365Z,51.53
2018-07-21T09:37:38.819Z,51.81
2018-07-21T09:38:04.313Z,51.84
2018-07-21T09:38:29.802Z,51.33
2018-07-21T09:38:55.297Z,52.4
2018-07-21T09:39:20.792Z,52.13
2018-07-21T09:39:46.290Z,52.2
2018-07-21T09:40:11.834Z,51.75
2018-07-21T09:40:37.315Z,51.75
2018-07-21T09:41:46.022Z,51.93
2018-07-21T09:42:11.513Z,51.55
2018-07-21T09:42:37.009Z,51.45
2018-07-21T09:43:02.594Z,51.45
2018-07-21T09:43:28.071Z,51.26
2018-07-21T09:43:53.559Z,51.26
2018-07-21T09:44:19.096Z,51.35
2018-07-21T09:44:44.609Z,50.51
2018-07-21T09:45:48.183Z,50.38
2018-07-21T09:46:13.674Z,50.51
2018-07-21T09:46:39.199Z,49.63
2018-07-21T09:47:04.820Z,49.82
2018-07-21T09:47:30.201Z,50.02
2018-07-21T09:47:55.695Z,49.63